createdAt,value
2023-02-19T00:00:00.119Z,100356.50
2023-02-19T00:02:27.831Z,100361.06
2023-02-19T00:05:29.337Z,100357.50
2023-02-19T00:07:57.006Z,100372.06
2023-02-19T00:10:24.661Z,100370.19
2023-02-19T00:12:54.933Z,100373.94
2023-02-19T00:15:22.898Z,100373.09
2023-02-19T00:17:50.590Z,100369.56
2023-02-19T00:20:18.338Z,100376.81
2023-02-19T00:22:46.142Z,100382.22
2023-02-19T00:25:13.741Z,100385.97
2023-02-19T00:27:41.439Z,100391.38
2023-02-19T00:30:11.297Z,100389.72
2023-02-19T00:32:39.027Z,100393.25
2023-02-19T00:35:06.974Z,100393.44
2023-02-19T00:37:34.654Z,100405.06
2023-02-19T00:40:02.344Z,100406.94
2023-02-19T00:42:30.557Z,100413.38
2023-02-19T00:44:58.241Z,100413.38
2023-02-19T00:47:27.302Z,100412.31
2023-02-19T00:49:55.052Z,100416.06
2023-02-19T00:52:22.786Z,100413.38
2023-02-19T00:54:50.454Z,100415.03
2023-02-19T00:57:18.151Z,100414.19
2023-02-19T00:59:45.946Z,100407.97
2023-02-19T01:02:13.575Z,100415.84
2023-02-19T01:04:42.618Z,100411.31
2023-02-19T01:07:10.278Z,100409.63
2023-02-19T01:09:38.199Z,100406.94
2023-02-19T01:12:05.947Z,100398.84
2023-02-19T01:14:33.750Z,100391.78
2023-02-19T01:17:01.408Z,100397.19
2023-02-19T01:19:35.152Z,100398.00
2023-02-19T01:22:04.135Z,100400.91
2023-02-19T01:24:31.740Z,100394.69
2023-02-19T01:26:59.489Z,100400.31
2023-02-19T01:29:27.164Z,100403.00
2023-02-19T01:31:54.953Z,100403.00
2023-02-19T01:34:54.949Z,100413.81
2023-02-19T01:37:24.092Z,100400.50
2023-02-19T01:39:51.768Z,100406.72
2023-02-19T01:42:19.434Z,100395.94
2023-02-19T01:45:05.818Z,100400.50
2023-02-19T01:47:33.511Z,100399.69
2023-02-19T01:50:01.667Z,100401.34
2023-02-19T01:52:31.897Z,100400.50
2023-02-19T01:54:59.564Z,100398.88
2023-02-19T01:57:28.053Z,100404.25
2023-02-19T01:59:56.116Z,100396.38
2023-02-19T02:02:25.084Z,100394.50
2023-02-19T02:05:11.616Z,100393.66
2023-02-19T02:07:58.133Z,100392.63
2023-02-19T02:10:25.885Z,100395.31
2023-02-19T02:12:54.473Z,100397.00
2023-02-19T02:15:24.205Z,100396.16
2023-02-19T02:17:53.219Z,100405.09
2023-02-19T02:20:28.845Z,100395.31
2023-02-19T02:22:59.053Z,100394.28
2023-02-19T02:25:30.851Z,100394.50
2023-02-19T02:28:02.259Z,100406.09
2023-02-19T02:30:35.378Z,100397.19
2023-02-19T02:35:31.447Z,100400.13
2023-02-19T02:38:00.537Z,100398.44
2023-02-19T02:40:28.130Z,100391.16
2023-02-19T02:42:57.980Z,100383.06
2023-02-19T02:45:39.958Z,100382.25
2023-02-19T02:48:10.732Z,100388.06
2023-02-19T02:50:38.992Z,100387.03
2023-02-19T02:53:25.116Z,100382.69
2023-02-19T02:55:53.203Z,100390.56
2023-02-19T02:58:21.149Z,100378.94
2023-02-19T03:01:06.841Z,100384.31
2023-02-19T03:03:35.969Z,100380.81
2023-02-19T03:06:04.400Z,100383.50
2023-02-19T03:08:32.351Z,100383.50
2023-02-19T03:11:20.698Z,100383.50
2023-02-19T03:14:05.570Z,100385.38
2023-02-19T03:16:51.534Z,100377.28
2023-02-19T03:19:20.686Z,100372.72
2023-02-19T03:21:49.010Z,100374.41
2023-02-19T03:24:34.223Z,100369.81
2023-02-19T03:27:02.074Z,100368.16
2023-02-19T03:29:30.713Z,100363.59
2023-02-19T03:31:58.814Z,100362.75
2023-02-19T03:34:28.377Z,100368.16
2023-02-19T03:36:57.749Z,100376.47
2023-02-19T03:39:25.349Z,100389.72
2023-02-19T03:41:57.062Z,100383.50
2023-02-19T03:44:26.233Z,100386.44
2023-02-19T03:46:55.009Z,100392.66
2023-02-19T03:49:24.918Z,100401.78
2023-02-19T03:51:54.993Z,100382.06
2023-02-19T03:54:23.866Z,100387.44
2023-02-19T03:56:51.784Z,100384.75
2023-02-19T03:59:20.174Z,100383.09
2023-02-19T04:01:48.553Z,100382.28
2023-02-19T04:04:17.501Z,100384.16
2023-02-19T04:06:45.662Z,100375.00
2023-02-19T04:09:14.728Z,100379.59
2023-02-19T04:11:42.378Z,100379.59
2023-02-19T04:14:10.639Z,100375.84
2023-02-19T04:16:39.078Z,100376.88
2023-02-19T04:19:07.777Z,100392.25
2023-02-19T04:21:35.384Z,100385.81
2023-02-19T04:24:04.110Z,100380.59
2023-02-19T04:26:33.255Z,100374.38
2023-02-19T04:29:00.970Z,100386.84
2023-02-19T04:31:29.126Z,100384.97
2023-02-19T04:33:57.000Z,100383.94
2023-02-19T04:36:24.615Z,100383.09
2023-02-19T04:38:52.267Z,100388.50
2023-02-19T04:41:19.920Z,100393.91
2023-02-19T04:43:48.984Z,100394.72
2023-02-19T04:46:16.789Z,100391.19
2023-02-19T04:48:44.459Z,100390.38
2023-02-19T04:51:12.337Z,100392.25
2023-02-19T04:53:40.118Z,100379.78
2023-02-19T04:56:08.341Z,100386.84
2023-02-19T04:58:36.282Z,100373.56
2023-02-19T05:01:05.420Z,100374.63
2023-02-19T05:03:35.114Z,100380.84
2023-02-19T05:06:03.397Z,100364.84
2023-02-19T05:08:31.107Z,100367.53
2023-02-19T05:10:59.209Z,100365.69
2023-02-19T05:13:26.954Z,100361.34
2023-02-19T05:15:58.127Z,100369.41
2023-02-19T05:18:27.240Z,100362.16
2023-02-19T05:20:54.871Z,100369.41
2023-02-19T05:23:22.471Z,100364.03
2023-02-19T05:25:50.148Z,100360.72
2023-02-19T05:28:21.045Z,100356.13
2023-02-19T05:30:49.346Z,100356.13
2023-02-19T05:33:17.152Z,100347.22
2023-02-19T05:35:53.221Z,100341.63
2023-02-19T05:38:20.862Z,100334.56
2023-02-19T05:40:48.483Z,100337.06
2023-02-19T05:43:16.164Z,100335.41
2023-02-19T05:45:43.825Z,100345.16
2023-02-19T05:48:11.885Z,100344.09
2023-02-19T05:50:39.946Z,100342.47
2023-02-19T05:53:09.165Z,100347.84
2023-02-19T05:55:36.873Z,100346.78
2023-02-19T05:58:04.588Z,100356.56
2023-02-19T06:00:33.232Z,100358.63
2023-02-19T06:03:00.921Z,100356.56
2023-02-19T06:05:28.617Z,100359.25
2023-02-19T06:07:56.301Z,100356.56
2023-02-19T06:10:25.372Z,100369.22
2023-02-19T06:12:53.996Z,100376.25
2023-02-19T06:15:21.663Z,100386.00
2023-02-19T06:17:49.441Z,100383.09
2023-02-19T06:20:17.146Z,100376.06
2023-02-19T06:22:44.756Z,100376.66
2023-02-19T06:25:13.241Z,100378.34
2023-02-19T06:27:42.268Z,100378.09
2023-02-19T06:30:10.662Z,100374.41
2023-02-19T06:32:38.352Z,100370.66
2023-02-19T06:35:15.212Z,100369.59
2023-02-19T06:37:42.911Z,100366.06
2023-02-19T06:40:10.795Z,100364.00
2023-02-19T06:42:38.457Z,100360.25
2023-02-19T06:45:07.853Z,100368.34
2023-02-19T06:47:35.481Z,100371.91
2023-02-19T06:50:21.374Z,100373.34
2023-02-19T06:52:49.051Z,100362.56
2023-02-19T06:55:16.742Z,100359.63
2023-02-19T06:57:44.400Z,100353.22
2023-02-19T07:00:13.925Z,100361.31
2023-02-19T07:02:41.577Z,100356.50
2023-02-19T07:05:09.366Z,100355.69
2023-02-19T07:07:37.120Z,100354.84
2023-02-19T07:10:05.036Z,100352.16
2023-02-19T07:12:32.695Z,100354.66
2023-02-19T07:15:00.849Z,100361.47
2023-02-19T07:17:29.900Z,100361.88
2023-02-19T07:19:57.537Z,100363.75
2023-02-19T07:22:25.206Z,100363.53
2023-02-19T07:24:52.873Z,100366.84
2023-02-19T07:27:20.583Z,100360.22
2023-02-19T07:29:48.281Z,100352.75
2023-02-19T07:32:15.953Z,100351.69
2023-02-19T07:34:45.587Z,100348.97
2023-02-19T07:37:13.248Z,100349.81
2023-02-19T07:39:40.876Z,100355.00
2023-02-19T07:42:08.517Z,100353.94
2023-02-19T07:44:36.138Z,100357.28
2023-02-19T07:47:03.990Z,100352.69
2023-02-19T07:49:33.101Z,100348.75
2023-02-19T07:52:02.189Z,100359.34
2023-02-19T07:54:29.977Z,100355.59
2023-02-19T07:56:57.740Z,100351.00
2023-02-19T07:59:25.345Z,100351.88
2023-02-19T08:02:10.648Z,100355.16
2023-02-19T08:04:38.349Z,100362.22
2023-02-19T08:07:07.725Z,100356.59
2023-02-19T08:09:35.326Z,100355.56
2023-02-19T08:12:20.754Z,100342.91
2023-02-19T08:14:48.421Z,100343.53
2023-02-19T08:17:16.681Z,100347.03
2023-02-19T08:19:44.334Z,100339.75
2023-02-19T08:22:16.980Z,100332.28
2023-02-19T08:24:45.159Z,100330.22
2023-02-19T08:27:13.237Z,100323.13
2023-02-19T08:29:40.936Z,100324.81
2023-02-19T08:32:09.318Z,100316.91
2023-02-19T08:34:37.168Z,100317.72
2023-02-19T08:37:05.450Z,100311.50
2023-02-19T08:39:34.825Z,100309.19
2023-02-19T08:42:03.169Z,100305.25
2023-02-19T08:44:30.829Z,100306.50
2023-02-19T08:46:58.972Z,100301.50
2023-02-19T08:49:27.943Z,100297.53
2023-02-19T08:51:56.911Z,100288.19
2023-02-19T08:54:24.553Z,100300.66
2023-02-19T08:56:54.229Z,100290.44
2023-02-19T08:59:21.975Z,100289.41
2023-02-19T09:01:49.600Z,100290.00
2023-02-19T09:04:17.854Z,100287.28
2023-02-19T09:06:45.469Z,100290.84
2023-02-19T09:09:13.745Z,100281.06
2023-02-19T09:11:41.437Z,100275.69
2023-02-19T09:14:11.252Z,100272.78
2023-02-19T09:16:38.914Z,100272.31
2023-02-19T09:19:07.882Z,100273.56
2023-02-19T09:21:35.522Z,100275.00
2023-02-19T09:24:03.950Z,100276.84
2023-02-19T09:26:31.676Z,100273.13
2023-02-19T09:29:00.635Z,100272.66
2023-02-19T09:31:29.872Z,100268.72
2023-02-19T09:33:58.356Z,100267.44
2023-02-19T09:36:26.000Z,100270.16
2023-02-19T09:38:54.286Z,100261.59
2023-02-19T09:41:23.799Z,100262.22
2023-02-19T09:43:52.118Z,100262.81
2023-02-19T09:46:23.833Z,100261.75
2023-02-19T09:48:53.658Z,100266.72
2023-02-19T09:51:22.077Z,100266.28
2023-02-19T09:53:51.317Z,100267.25
2023-02-19T09:56:19.032Z,100267.06
2023-02-19T09:58:48.607Z,100268.13
2023-02-19T10:01:16.293Z,100270.56
2023-02-19T10:03:46.804Z,100273.06
2023-02-19T10:06:19.094Z,100264.97
2023-02-19T10:08:47.824Z,100268.69
2023-02-19T10:11:15.570Z,100261.19
2023-02-19T10:13:43.908Z,100262.44
2023-02-19T10:16:16.954Z,100256.56
2023-02-19T10:18:45.135Z,100248.22
2023-02-19T10:21:14.206Z,100244.50
2023-02-19T10:23:43.202Z,100239.91
2023-02-19T10:26:11.523Z,100235.13
2023-02-19T10:28:39.292Z,100231.34
2023-02-19T10:31:09.400Z,100232.41
2023-02-19T10:33:37.194Z,100230.53
2023-02-19T10:36:06.742Z,100229.72
2023-02-19T10:38:34.779Z,100234.88
2023-02-19T10:41:06.133Z,100225.94
2023-02-19T10:43:34.263Z,100225.94
2023-02-19T10:46:03.451Z,100226.34
2023-02-19T10:48:31.717Z,100220.13
2023-02-19T10:51:05.609Z,100210.38
2023-02-19T10:53:42.612Z,100204.16
2023-02-19T10:56:12.720Z,100198.09
2023-02-19T10:58:42.484Z,100192.31
2023-02-19T11:01:14.746Z,100199.38
2023-02-19T11:03:42.421Z,100192.09
2023-02-19T11:06:11.329Z,100196.22
2023-02-19T11:08:46.381Z,100189.16
2023-02-19T11:11:24.591Z,100191.25
2023-02-19T11:13:52.302Z,100189.63
2023-02-19T11:16:20.792Z,100188.56
2023-02-19T11:18:56.877Z,100189.63
2023-02-19T11:21:28.736Z,100189.63
2023-02-19T11:23:56.409Z,100185.84
2023-02-19T11:26:26.835Z,100187.50
2023-02-19T11:28:56.627Z,100189.16
2023-02-19T11:31:25.805Z,100195.41
2023-02-19T11:33:57.379Z,100190.63
2023-02-19T11:36:53.651Z,100186.22
2023-02-19T11:39:22.033Z,100180.00
2023-02-19T11:41:55.299Z,100178.34
2023-02-19T11:44:30.262Z,100167.94
2023-02-19T11:47:01.925Z,100167.13
2023-02-19T11:49:33.853Z,100168.78
2023-02-19T11:52:20.887Z,100170.44
2023-02-19T11:54:51.109Z,100158.56
2023-02-19T11:57:31.439Z,100157.13
2023-02-19T12:00:01.149Z,100152.78
2023-02-19T12:02:35.488Z,100142.16
2023-02-19T12:05:11.326Z,100140.53
2023-02-19T12:08:16.841Z,100155.06
2023-02-19T12:10:48.010Z,100139.31
2023-02-19T12:13:19.234Z,100144.09
2023-02-19T12:15:50.566Z,100133.53
2023-02-19T12:18:25.356Z,100134.81
2023-02-19T12:21:25.173Z,100126.09
2023-02-19T12:23:57.780Z,100119.28
2023-02-19T12:26:26.069Z,100114.09
2023-02-19T12:29:03.419Z,100105.41
2023-02-19T12:31:43.602Z,100113.50
2023-02-19T12:34:17.581Z,100108.56
2023-02-19T12:36:46.828Z,100106.66
2023-02-19T12:39:15.838Z,100094.19
2023-02-19T12:41:44.462Z,100087.16
2023-02-19T12:44:17.747Z,100087.97
2023-02-19T12:46:49.932Z,100092.56
2023-02-19T12:49:21.487Z,100093.16
2023-02-19T12:51:50.419Z,100087.75
2023-02-19T12:54:19.036Z,100088.59
2023-02-19T12:56:48.772Z,100085.88
2023-02-19T12:59:19.139Z,100088.78
2023-02-19T13:01:48.220Z,100081.53
2023-02-19T13:04:19.091Z,100076.34
2023-02-19T13:06:47.855Z,100073.03
2023-02-19T13:09:17.293Z,100071.59
2023-02-19T13:11:45.521Z,100072.66
2023-02-19T13:14:17.077Z,100074.16
2023-02-19T13:16:47.073Z,100067.13
2023-02-19T13:19:16.128Z,100066.50
2023-02-19T13:22:01.174Z,100079.41
2023-02-19T13:24:30.674Z,100066.16
2023-02-19T13:27:05.231Z,100070.72
2023-02-19T13:29:50.711Z,100078.22
2023-02-19T13:32:27.057Z,100072.00
2023-02-19T13:34:57.751Z,100067.88
2023-02-19T13:37:26.142Z,100075.16
2023-02-19T13:39:55.322Z,100081.59
2023-02-19T13:42:26.560Z,100071.84
2023-02-19T13:44:58.008Z,100069.13
2023-02-19T13:47:45.062Z,100066.66
2023-02-19T13:50:18.855Z,100057.53
2023-02-19T13:52:47.239Z,100062.91
2023-02-19T13:55:34.161Z,100052.94
2023-02-19T13:58:16.629Z,100058.09
2023-02-19T14:00:52.121Z,100051.66
2023-02-19T14:03:29.374Z,100052.50
2023-02-19T14:06:01.184Z,100052.28
2023-02-19T14:08:43.681Z,100047.91
2023-02-19T14:11:15.628Z,100054.38
2023-02-19T14:13:59.539Z,100055.19
2023-02-19T14:16:31.717Z,100059.97
2023-02-19T14:18:59.462Z,100059.16
2023-02-19T14:21:36.084Z,100075.38
2023-02-19T14:24:03.704Z,100075.56
2023-02-19T14:26:31.952Z,100071.44
2023-02-19T14:29:01.074Z,100065.47
2023-02-19T14:31:29.905Z,100063.78
2023-02-19T14:33:58.620Z,100067.56
2023-02-19T14:36:35.187Z,100072.13
2023-02-19T14:39:04.143Z,100083.16
2023-02-19T14:41:32.037Z,100074.44
2023-02-19T14:44:01.165Z,100080.91
2023-02-19T14:46:30.578Z,100085.47
2023-02-19T14:49:01.038Z,100095.47
2023-02-19T14:51:31.457Z,100093.78
2023-02-19T14:54:01.344Z,100088.38
2023-02-19T14:56:29.368Z,100086.13
2023-02-19T14:59:10.435Z,100089.03
2023-02-19T15:01:38.047Z,100086.34
2023-02-19T15:04:06.576Z,100085.53
2023-02-19T15:06:35.114Z,100083.88
2023-02-19T15:09:05.569Z,100079.50
2023-02-19T15:11:33.296Z,100087.63
2023-02-19T15:14:02.402Z,100075.38
2023-02-19T15:16:30.264Z,100088.06
2023-02-19T15:18:58.673Z,100083.69
2023-02-19T15:21:26.542Z,100082.06
2023-02-19T15:23:55.008Z,100081.44
2023-02-19T15:26:25.262Z,100087.66
2023-02-19T15:29:00.229Z,100094.31
2023-02-19T15:31:28.696Z,100092.69
2023-02-19T15:33:56.499Z,100092.06
2023-02-19T15:36:25.835Z,100096.03
2023-02-19T15:38:54.657Z,100093.53
2023-02-19T15:41:23.733Z,100102.69
2023-02-19T15:43:54.010Z,100099.38
2023-02-19T15:46:22.026Z,100108.53
2023-02-19T15:48:51.211Z,100111.44
2023-02-19T15:51:21.298Z,100121.41
2023-02-19T15:53:49.477Z,100119.78
2023-02-19T15:56:18.488Z,100123.50
2023-02-19T15:58:47.073Z,100130.16
2023-02-19T16:01:17.102Z,100124.78
2023-02-19T16:03:46.287Z,100127.72
2023-02-19T16:06:32.318Z,100122.31
2023-02-19T16:09:04.356Z,100119.59
2023-02-19T16:11:35.526Z,100117.72
2023-02-19T16:14:19.271Z,100113.16
2023-02-19T16:16:48.577Z,100123.94
2023-02-19T16:19:22.208Z,100126.66
2023-02-19T16:21:49.828Z,100125.59
2023-02-19T16:24:18.895Z,100132.03
2023-02-19T16:26:47.318Z,100140.97
2023-02-19T16:29:18.141Z,100134.75
2023-02-19T16:31:50.857Z,100135.56
2023-02-19T16:34:18.907Z,100135.56
2023-02-19T16:37:07.284Z,100141.19
2023-02-19T16:39:35.147Z,100152.19
2023-02-19T16:42:14.269Z,100158.41
2023-02-19T16:44:42.273Z,100149.69
2023-02-19T16:47:16.837Z,100143.47
2023-02-19T16:49:47.392Z,100149.69
2023-02-19T16:52:15.474Z,100165.06
2023-02-19T16:54:44.342Z,100164.25
2023-02-19T16:57:12.020Z,100168.00
2023-02-19T16:59:40.524Z,100166.34
2023-02-19T17:02:09.110Z,100178.19
2023-02-19T17:04:38.974Z,100185.47
2023-02-19T17:07:06.592Z,100183.56
2023-02-19T17:09:35.385Z,100190.84
2023-02-19T17:12:04.395Z,100203.53
2023-02-19T17:14:31.992Z,100215.13
2023-02-19T17:17:02.308Z,100213.25
2023-02-19T17:19:30.141Z,100224.06
2023-02-19T17:22:01.545Z,100222.16
2023-02-19T17:24:29.181Z,100237.53
2023-02-19T17:26:57.696Z,100240.22
2023-02-19T17:29:25.661Z,100234.84
2023-02-19T17:31:53.492Z,100236.72
2023-02-19T17:34:22.425Z,100260.19
2023-02-19T17:36:50.092Z,100265.56
2023-02-19T17:39:19.502Z,100260.19
2023-02-19T17:41:48.041Z,100264.72
2023-02-19T17:44:15.822Z,100277.38
2023-02-19T17:46:44.308Z,100274.69
2023-02-19T17:49:22.428Z,100277.63
2023-02-19T17:51:50.873Z,100277.63
2023-02-19T17:54:19.940Z,100282.16
2023-02-19T17:56:47.628Z,100297.53
2023-02-19T17:59:18.269Z,100295.66
2023-02-19T18:01:46.163Z,100295.06
2023-02-19T18:04:13.910Z,100295.06
2023-02-19T18:06:44.374Z,100286.34
2023-02-19T18:09:15.197Z,100294.22
2023-02-19T18:11:48.401Z,100303.34
2023-02-19T18:14:16.069Z,100314.16
2023-02-19T18:16:50.236Z,100306.25
2023-02-19T18:19:18.158Z,100306.25
2023-02-19T18:21:45.810Z,100314.34
2023-02-19T18:24:14.357Z,100318.72
2023-02-19T18:26:42.214Z,100322.44
2023-02-19T18:29:11.288Z,100326.81
2023-02-19T18:31:41.599Z,100323.31
2023-02-19T18:34:11.521Z,100335.94
2023-02-19T18:36:49.453Z,100338.44
2023-02-19T18:39:17.361Z,100351.09
2023-02-19T18:41:48.620Z,100341.31
2023-02-19T18:44:20.168Z,100341.31
2023-02-19T18:46:48.693Z,100344.88
2023-02-19T18:49:25.434Z,100334.91
2023-02-19T18:52:13.180Z,100333.25
2023-02-19T18:54:40.883Z,100334.09
2023-02-19T18:57:08.768Z,100344.03
2023-02-19T18:59:38.730Z,100352.34
2023-02-19T19:02:07.781Z,100354.22
2023-02-19T19:04:37.637Z,100349.84
2023-02-19T19:07:05.525Z,100342.00
2023-02-19T19:09:33.494Z,100344.47
2023-02-19T19:12:02.635Z,100340.94
2023-02-19T19:14:30.281Z,100349.03
2023-02-19T19:17:00.220Z,100351.97
2023-02-19T19:19:28.706Z,100349.25
2023-02-19T19:21:56.393Z,100364.38
2023-02-19T19:24:24.282Z,100361.88
2023-02-19T19:26:54.511Z,100370.84
2023-02-19T19:29:22.802Z,100372.50
2023-02-19T19:31:51.681Z,100375.19
2023-02-19T19:34:20.776Z,100383.28
2023-02-19T19:36:48.476Z,100386.78
2023-02-19T19:39:16.958Z,100390.31
2023-02-19T19:41:44.541Z,100389.28
2023-02-19T19:44:13.035Z,100392.19
2023-02-19T19:46:46.574Z,100394.69
2023-02-19T19:49:17.625Z,100408.19
2023-02-19T19:51:48.048Z,100400.09
2023-02-19T19:54:15.794Z,100393.84
2023-02-19T19:56:43.519Z,100397.38
2023-02-19T19:59:12.673Z,100399.22
2023-02-19T20:01:40.375Z,100405.47
2023-02-19T20:04:08.135Z,100398.41
2023-02-19T20:06:40.594Z,100406.72
2023-02-19T20:09:09.690Z,100409.44
2023-02-19T20:11:38.196Z,100407.56
2023-02-19T20:14:05.916Z,100402.16
2023-02-19T20:16:35.730Z,100401.34
2023-02-19T20:19:03.408Z,100402.16
2023-02-19T20:21:30.991Z,100395.31
2023-02-19T20:23:59.633Z,100409.63
2023-02-19T20:26:28.921Z,100410.44
2023-02-19T20:28:56.753Z,100413.16
2023-02-19T20:31:25.826Z,100409.63
2023-02-19T20:33:53.655Z,100407.97
2023-02-19T20:36:22.599Z,100403.41
2023-02-19T20:38:50.443Z,100405.28
2023-02-19T20:41:19.120Z,100415.03
2023-02-19T20:43:48.167Z,100408.81
2023-02-19T20:46:16.012Z,100413.16
2023-02-19T20:48:44.629Z,100422.09
2023-02-19T20:51:14.793Z,100432.03
2023-02-19T20:53:43.361Z,100432.03
2023-02-19T20:56:12.316Z,100443.69
2023-02-19T20:58:43.635Z,100449.91
2023-02-19T21:01:12.843Z,100445.31
2023-02-19T21:03:41.563Z,100450.72
2023-02-19T21:06:09.524Z,100443.69
2023-02-19T21:08:39.598Z,100438.28
2023-02-19T21:11:07.202Z,100436.59
2023-02-19T21:13:36.100Z,100429.56
2023-02-19T21:16:03.886Z,100451.13
2023-02-19T21:18:33.014Z,100451.97
2023-02-19T21:21:01.789Z,100483.50
2023-02-19T21:23:29.448Z,100515.88
2023-02-19T21:25:57.098Z,100541.81
2023-02-19T21:28:26.605Z,100533.09
2023-02-19T21:30:54.315Z,100545.75
2023-02-19T21:33:24.672Z,100554.06
2023-02-19T21:35:53.733Z,100536.19
2023-02-19T21:38:22.731Z,100536.19
2023-02-19T21:40:50.410Z,100534.56
2023-02-19T21:43:19.081Z,100522.72
2023-02-19T21:45:46.761Z,100508.59
2023-02-19T21:48:15.828Z,100504.88
2023-02-19T21:50:45.752Z,100498.44
2023-02-19T21:53:19.694Z,100491.41
2023-02-19T21:55:57.888Z,100494.09
2023-02-19T21:58:27.065Z,100486.00
2023-02-19T22:00:56.354Z,100497.63
2023-02-19T22:03:24.890Z,100502.19
2023-02-19T22:05:52.616Z,100503.84
2023-02-19T22:08:21.698Z,100522.72
2023-02-19T22:10:50.250Z,100518.16
2023-02-19T22:13:17.880Z,100516.69
2023-02-19T22:15:46.392Z,100519.38
2023-02-19T22:18:14.028Z,100520.44
2023-02-19T22:20:42.601Z,100525.22
2023-02-19T22:23:10.232Z,100529.59
2023-02-19T22:25:39.297Z,100539.50
2023-02-19T22:28:08.470Z,100540.38
2023-02-19T22:30:36.207Z,100551.34
2023-02-19T22:33:04.734Z,100553.22
2023-02-19T22:35:32.389Z,100542.44
2023-02-19T22:38:00.088Z,100556.94
2023-02-19T22:40:28.512Z,100569.81
2023-02-19T22:42:57.617Z,100568.16
2023-02-19T22:45:25.701Z,100580.63
2023-02-19T22:47:55.650Z,100577.09
2023-02-19T22:50:25.343Z,100584.31
2023-02-19T22:52:55.544Z,100585.38
2023-02-19T22:55:23.132Z,100579.16
2023-02-19T22:57:50.773Z,100594.50
2023-02-19T23:00:22.872Z,100590.78
2023-02-19T23:02:50.700Z,100589.72
2023-02-19T23:05:19.129Z,100595.13
2023-02-19T23:07:46.866Z,100586.00
2023-02-19T23:10:15.749Z,100594.94
2023-02-19T23:12:43.387Z,100600.31
2023-02-19T23:15:12.102Z,100599.50
2023-02-19T23:17:41.263Z,100596.78
2023-02-19T23:20:09.633Z,100602.19
2023-02-19T23:22:37.285Z,100600.50
2023-02-19T23:25:05.755Z,100610.28
2023-02-19T23:27:33.377Z,100606.94
2023-02-19T23:30:01.042Z,100602.59
2023-02-19T23:32:28.668Z,100608.00
2023-02-19T23:34:57.784Z,100612.53
2023-02-19T23:37:25.514Z,100618.78
2023-02-19T23:39:53.216Z,100619.81
2023-02-19T23:42:20.866Z,100628.94
2023-02-19T23:44:48.535Z,100619.16
2023-02-19T23:47:16.249Z,100626.25
2023-02-19T23:49:43.947Z,100620.03
2023-02-19T23:52:25.201Z,100616.28
2023-02-19T23:54:52.849Z,100619.16
2023-02-19T23:57:20.572Z,100621.88
2023-02-19T23:59:49.181Z,100621.88
